Time;durP1;ratioP1;P1;durP2;ratioP2;P2;SDS_P1;SDS_P2;PMS_P1;PMS_P2;Temp;Humidity;BMP_temperature;BMP_pressure;BME280_temperature;BME280_humidity;BME280_pressure;Samples;Min_cycle;Max_cycle;Signal;HPM_P1;HPM_P2
2021/03/01 00:00:43;;;;;;;38.17;21.27;;;3.60;99.90;;;;;;5132806;27;20288;-74
2021/03/01 00:03:10;;;;;;;49.80;27.60;;;3.60;99.90;;;;;;5132512;27;20228;-74
2021/03/01 00:05:36;;;;;;;58.87;32.10;;;3.60;99.90;;;;;;5132053;27;20273;-73
2021/03/01 00:08:03;;;;;;;174.23;82.73;;;3.60;99.90;;;;;;5131586;27;20319;-73
2021/03/01 00:10:29;;;;;;;68.17;38.03;;;3.60;99.90;;;;;;5119728;27;20599;-74
2021/03/01 00:12:57;;;;;;;88.03;45.17;;;3.70;99.90;;;;;;5132826;27;20273;-74
2021/03/01 00:15:25;;;;;;;37.87;21.60;;;3.70;99.90;;;;;;5132070;27;20231;-74
2021/03/01 00:17:51;;;;;;;50.93;30.13;;;3.70;99.90;;;;;;5133826;27;20721;-74
2021/03/01 00:20:18;;;;;;;43.67;24.67;;;3.70;99.90;;;;;;5135998;27;20232;-73
2021/03/01 00:22:45;;;;;;;126.67;62.20;;;3.60;99.90;;;;;;5135658;27;20222;-73
2021/03/01 00:25:13;;;;;;;122.50;59.27;;;3.60;99.90;;;;;;5135656;27;20291;-74
2021/03/01 00:27:39;;;;;;;82.27;43.40;;;3.60;99.90;;;;;;5130524;27;20217;-74
2021/03/01 00:30:09;;;;;;;35.27;19.87;;;3.70;99.90;;;;;;5132129;27;20236;-74
2021/03/01 00:32:36;;;;;;;79.90;38.70;;;3.70;99.90;;;;;;5135810;27;20255;-74
2021/03/01 00:35:03;;;;;;;36.03;19.77;;;3.70;99.90;;;;;;5134990;27;20236;-74
2021/03/01 00:37:30;;;;;;;35.87;19.77;;;3.70;99.90;;;;;;5135693;27;20273;-74
2021/03/01 00:39:56;;;;;;;112.00;48.60;;;3.70;99.90;;;;;;5136631;27;20283;-74
2021/03/01 00:42:22;;;;;;;75.77;34.50;;;3.60;99.90;;;;;;5130758;27;20249;-74
2021/03/01 00:44:49;;;;;;;58.67;28.10;;;3.70;99.90;;;;;;5135710;27;20729;-74
2021/03/01 00:47:16;;;;;;;333.60;96.70;;;3.60;99.90;;;;;;5135080;27;20304;-74
2021/03/01 00:49:43;;;;;;;245.67;82.63;;;3.70;99.90;;;;;;5135333;27;20243;-74
2021/03/01 00:52:10;;;;;;;259.80;88.23;;;3.60;99.90;;;;;;5133165;27;20280;-74
2021/03/01 00:54:37;;;;;;;348.77;115.40;;;3.60;99.90;;;;;;5135143;27;20233;-74
2021/03/01 00:57:04;;;;;;;265.57;90.30;;;3.50;99.90;;;;;;5135263;27;20229;-74
2021/03/01 00:59:30;;;;;;;192.10;70.50;;;3.50;99.90;;;;;;5135991;27;20236;-74
2021/03/01 01:01:57;;;;;;;287.03;119.67;;;3.60;99.90;;;;;;5129523;27;20316;-74
2021/03/01 01:04:24;;;;;;;86.77;42.23;;;3.60;99.90;;;;;;5132725;27;20738;-74
2021/03/01 01:06:50;;;;;;;74.90;47.30;;;3.50;99.90;;;;;;5134726;27;20260;-74
2021/03/01 01:09:17;;;;;;;35.97;24.57;;;3.40;99.90;;;;;;5131755;27;20708;-74
2021/03/01 01:11:44;;;;;;;30.93;18.03;;;3.40;99.90;;;;;;5134693;27;20204;-74
2021/03/01 01:14:11;;;;;;;30.20;17.87;;;3.40;99.90;;;;;;5135295;27;20228;-74
2021/03/01 01:16:37;;;;;;;29.27;16.40;;;3.30;99.90;;;;;;5134225;27;20228;-74
2021/03/01 01:19:05;;;;;;;28.00;15.97;;;3.30;99.90;;;;;;5134762;27;20256;-73
2021/03/01 01:21:32;;;;;;;26.33;15.87;;;3.20;99.90;;;;;;5133133;27;20241;-74
2021/03/01 01:23:59;;;;;;;28.47;16.73;;;3.10;99.90;;;;;;5134625;27;20228;-74
2021/03/01 01:26:25;;;;;;;28.10;17.30;;;3.00;99.90;;;;;;5125281;27;20252;-74
2021/03/01 01:28:52;;;;;;;26.47;16.63;;;3.10;99.90;;;;;;5134032;27;20233;-74
2021/03/01 01:31:18;;;;;;;29.03;16.77;;;3.10;99.90;;;;;;5135084;27;20292;-74
2021/03/01 01:33:44;;;;;;;27.57;16.50;;;3.00;99.90;;;;;;5134355;27;20236;-74
2021/03/01 01:36:11;;;;;;;30.27;17.43;;;3.00;99.90;;;;;;5134953;27;20237;-74
2021/03/01 01:38:38;;;;;;;28.80;17.07;;;3.00;99.90;;;;;;5132195;27;20286;-74
2021/03/01 01:41:05;;;;;;;29.93;16.97;;;3.00;99.90;;;;;;5134849;27;20655;-74
2021/03/01 01:43:31;;;;;;;27.57;16.77;;;3.00;99.90;;;;;;5134978;27;20266;-74
2021/03/01 01:45:57;;;;;;;28.80;16.33;;;2.90;99.90;;;;;;5134222;27;20245;-74
2021/03/01 01:48:24;;;;;;;31.83;16.87;;;2.90;99.90;;;;;;5129203;27;20249;-74
2021/03/01 01:50:50;;;;;;;24.57;14.87;;;2.80;99.90;;;;;;5134153;27;20223;-74
2021/03/01 01:53:17;;;;;;;28.30;16.13;;;2.90;99.90;;;;;;5118585;27;20226;-74
2021/03/01 01:55:44;;;;;;;27.50;16.60;;;2.90;99.90;;;;;;5133446;27;20639;-74
2021/03/01 01:58:11;;;;;;;26.57;15.33;;;2.80;99.90;;;;;;5134493;27;20280;-73
2021/03/01 02:00:45;;;;;;;27.90;15.70;;;2.60;99.90;;;;;;5132863;27;20644;-74
2021/03/01 02:03:30;;;;;;;26.87;15.77;;;2.60;99.90;;;;;;5127394;27;20195;-73
2021/03/01 02:06:02;;;;;;;27.53;15.60;;;2.60;99.90;;;;;;5133848;27;20643;-73
2021/03/01 02:08:35;;;;;;;27.83;16.07;;;2.50;99.90;;;;;;5132794;27;20288;-74
2021/03/01 02:11:09;;;;;;;29.03;16.30;;;2.50;99.90;;;;;;5134242;27;20286;-74
2021/03/01 02:13:40;;;;;;;28.47;16.03;;;2.70;99.90;;;;;;5133227;27;20207;-73
2021/03/01 02:16:12;;;;;;;27.63;16.27;;;2.70;99.90;;;;;;5126629;27;20231;-73
2021/03/01 02:18:38;;;;;;;27.23;16.03;;;2.60;99.90;;;;;;5132899;27;20215;-74
2021/03/01 02:21:09;;;;;;;30.17;17.00;;;2.60;99.90;;;;;;5133218;27;20287;-73
2021/03/01 02:23:38;;;;;;;28.43;16.10;;;2.60;99.90;;;;;;5134030;27;20606;-74
2021/03/01 02:26:15;;;;;;;27.13;16.10;;;2.70;99.90;;;;;;5134004;27;20239;-74
2021/03/01 02:28:46;;;;;;;26.13;15.87;;;2.70;99.90;;;;;;5134298;27;20803;-73
2021/03/01 02:31:13;;;;;;;27.90;16.13;;;2.70;99.90;;;;;;5133137;27;20314;-73
2021/03/01 02:33:44;;;;;;;28.00;15.83;;;2.80;99.90;;;;;;5133815;27;20210;-73
2021/03/01 02:36:21;;;;;;;26.97;15.13;;;2.90;99.90;;;;;;5132955;27;20280;-73
2021/03/01 02:38:50;;;;;;;24.93;15.57;;;2.80;99.90;;;;;;5134005;27;20231;-74
2021/03/01 02:41:19;;;;;;;26.40;14.97;;;2.90;99.90;;;;;;5133145;27;20224;-74
2021/03/01 02:43:46;;;;;;;26.33;15.53;;;2.90;99.90;;;;;;5133597;27;20243;-74
2021/03/01 02:46:13;;;;;;;28.93;16.40;;;2.90;99.90;;;;;;5133282;27;20231;-74
2021/03/01 02:48:42;;;;;;;27.87;16.67;;;2.90;99.90;;;;;;5130154;27;20647;-73
2021/03/01 02:51:10;;;;;;;26.43;16.17;;;2.80;99.90;;;;;;5133422;27;20206;-73
2021/03/01 02:53:39;;;;;;;26.93;15.77;;;2.70;99.90;;;;;;5125098;27;20319;-73
2021/03/01 02:56:08;;;;;;;31.27;17.50;;;2.70;99.90;;;;;;5133836;27;20323;-74
2021/03/01 02:58:37;;;;;;;29.70;16.77;;;2.70;99.90;;;;;;5133021;27;20223;-73
2021/03/01 03:01:06;;;;;;;28.20;16.43;;;2.60;99.90;;;;;;5132180;27;20288;-73
2021/03/01 03:03:34;;;;;;;30.17;17.80;;;2.60;99.90;;;;;;5132787;27;20242;-73
2021/03/01 03:06:00;;;;;;;30.33;18.17;;;2.60;99.90;;;;;;5123933;27;20225;-73
2021/03/01 03:08:31;;;;;;;31.77;17.47;;;2.70;99.90;;;;;;5132726;27;20274;-73
2021/03/01 03:10:58;;;;;;;30.63;17.73;;;2.80;99.90;;;;;;5126433;27;20226;-73
2021/03/01 03:13:26;;;;;;;29.60;17.80;;;2.70;99.90;;;;;;5132369;27;20212;-73
2021/03/01 03:15:55;;;;;;;29.73;17.40;;;2.80;99.90;;;;;;5132412;27;20749;-73
2021/03/01 03:18:24;;;;;;;28.80;17.47;;;2.80;99.90;;;;;;5131982;27;20248;-73
2021/03/01 03:20:51;;;;;;;29.70;17.57;;;2.70;99.90;;;;;;5132903;27;20235;-74
2021/03/01 03:23:18;;;;;;;32.90;18.20;;;2.70;99.90;;;;;;5132877;27;20235;-73
2021/03/01 03:25:45;;;;;;;29.40;17.20;;;2.60;99.90;;;;;;5133401;27;20240;-73
2021/03/01 03:28:11;;;;;;;30.43;17.50;;;2.60;99.90;;;;;;5128452;27;20724;-73
2021/03/01 03:30:39;;;;;;;29.13;17.27;;;2.50;99.90;;;;;;5112540;28;20681;-73
2021/03/01 03:33:06;;;;;;;28.90;17.43;;;2.50;99.90;;;;;;5113070;28;20353;-73
2021/03/01 03:35:33;;;;;;;31.93;17.87;;;2.50;99.90;;;;;;5112862;28;20241;-73
2021/03/01 03:38:05;;;;;;;33.00;18.17;;;2.50;99.90;;;;;;5123335;27;20226;-73
2021/03/01 03:40:33;;;;;;;32.53;18.87;;;2.50;99.90;;;;;;5133472;27;20290;-74
2021/03/01 03:43:00;;;;;;;31.20;17.70;;;2.40;99.90;;;;;;5132902;27;20263;-73
2021/03/01 03:45:27;;;;;;;30.67;17.23;;;2.40;99.90;;;;;;5132878;27;20686;-73
2021/03/01 03:48:00;;;;;;;27.37;16.40;;;2.30;99.90;;;;;;5133035;27;20314;-73
2021/03/01 03:50:27;;;;;;;28.57;17.43;;;2.40;99.90;;;;;;5133064;27;20234;-73
2021/03/01 03:52:58;;;;;;;26.87;16.50;;;2.50;99.90;;;;;;5132982;27;20289;-74
2021/03/01 03:55:27;;;;;;;28.37;16.80;;;2.40;99.90;;;;;;5132334;27;20237;-73
2021/03/01 03:57:57;;;;;;;29.07;16.53;;;2.30;99.90;;;;;;5132469;27;20705;-73
2021/03/01 04:00:27;;;;;;;29.40;16.53;;;2.30;99.90;;;;;;5125856;27;20203;-73
2021/03/01 04:02:58;;;;;;;28.93;16.30;;;2.30;99.90;;;;;;5112729;28;20234;-74
2021/03/01 04:05:28;;;;;;;29.53;17.30;;;2.30;99.90;;;;;;5112227;28;20689;-73
2021/03/01 04:07:56;;;;;;;27.97;16.40;;;2.20;99.90;;;;;;5119070;28;20210;-74
2021/03/01 04:10:24;;;;;;;25.83;16.47;;;2.10;99.90;;;;;;5132647;27;20668;-73
2021/03/01 04:12:53;;;;;;;27.23;16.43;;;2.10;99.90;;;;;;5132508;27;20225;-73
2021/03/01 04:15:20;;;;;;;27.87;16.53;;;2.10;99.90;;;;;;5132824;27;20227;-73
2021/03/01 04:17:48;;;;;;;27.97;15.93;;;2.10;99.90;;;;;;5130901;27;20245;-73
2021/03/01 04:20:22;;;;;;;32.03;16.93;;;2.20;99.90;;;;;;5112150;28;20245;-74
2021/03/01 04:22:50;;;;;;;27.93;16.27;;;2.30;99.90;;;;;;5112020;28;20204;-73
2021/03/01 04:25:17;;;;;;;28.60;16.47;;;2.30;99.90;;;;;;5111565;28;20238;-74
2021/03/01 04:27:45;;;;;;;28.13;16.53;;;2.40;99.90;;;;;;5111307;28;20231;-74
2021/03/01 04:30:14;;;;;;;25.83;15.47;;;2.40;99.90;;;;;;5112044;28;20237;-73
2021/03/01 04:32:44;;;;;;;30.10;16.33;;;2.30;99.90;;;;;;5112541;28;20666;-74
2021/03/01 04:35:13;;;;;;;26.27;15.67;;;2.30;99.90;;;;;;5124175;28;20203;-73
2021/03/01 04:37:42;;;;;;;26.87;15.63;;;2.20;99.90;;;;;;5112755;28;20222;-73
2021/03/01 04:40:11;;;;;;;28.60;16.27;;;2.20;99.90;;;;;;5132336;27;20230;-73
2021/03/01 04:42:40;;;;;;;29.27;16.87;;;2.10;99.90;;;;;;5131867;27;20233;-74
2021/03/01 04:45:08;;;;;;;25.57;15.43;;;2.10;99.90;;;;;;5120841;27;20278;-73
2021/03/01 04:47:35;;;;;;;29.20;16.40;;;1.90;99.90;;;;;;5111796;28;20315;-73
2021/03/01 04:50:03;;;;;;;26.50;15.50;;;1.90;99.90;;;;;;5128873;28;20600;-73
2021/03/01 04:52:32;;;;;;;26.60;15.73;;;1.90;99.90;;;;;;5131637;27;20237;-74
2021/03/01 04:55:01;;;;;;;28.00;16.07;;;1.90;99.90;;;;;;5131788;27;20299;-74
2021/03/01 04:57:27;;;;;;;32.40;16.23;;;1.90;99.90;;;;;;5131361;27;20248;-73
2021/03/01 04:59:54;;;;;;;29.33;16.53;;;1.90;99.90;;;;;;5132010;27;20285;-74
2021/03/01 05:02:21;;;;;;;27.37;16.03;;;2.00;99.90;;;;;;5132327;27;20696;-74
2021/03/01 05:04:47;;;;;;;25.77;15.50;;;2.00;99.90;;;;;;5135807;27;20289;-73
2021/03/01 05:07:14;;;;;;;27.73;15.77;;;1.90;99.90;;;;;;5136253;27;20262;-73
2021/03/01 05:09:40;;;;;;;27.10;15.43;;;1.90;99.90;;;;;;5132417;27;20286;-73
2021/03/01 05:12:09;;;;;;;26.47;15.87;;;1.90;99.90;;;;;;5135762;27;20232;-74
2021/03/01 05:14:35;;;;;;;26.30;15.97;;;1.80;99.90;;;;;;5135624;27;20235;-74
2021/03/01 05:17:02;;;;;;;25.87;15.63;;;1.90;99.90;;;;;;5135377;27;20248;-73
2021/03/01 05:19:30;;;;;;;28.80;16.60;;;1.90;99.90;;;;;;5134652;27;20680;-74
2021/03/01 05:21:57;;;;;;;28.17;16.00;;;1.80;99.90;;;;;;5135679;27;20202;-73
2021/03/01 05:24:24;;;;;;;25.27;16.07;;;1.80;99.90;;;;;;5124036;27;20225;-74
2021/03/01 05:26:51;;;;;;;30.67;16.70;;;1.90;99.90;;;;;;5115015;28;20717;-73
2021/03/01 05:29:18;;;;;;;27.27;15.90;;;1.90;99.90;;;;;;5115427;28;20225;-74
2021/03/01 05:31:45;;;;;;;28.07;16.40;;;1.90;99.90;;;;;;5115087;28;20269;-73
2021/03/01 05:34:11;;;;;;;27.40;15.90;;;1.90;99.90;;;;;;5131113;27;20238;-73
2021/03/01 05:36:38;;;;;;;31.50;17.13;;;1.90;99.90;;;;;;5135349;27;20289;-73
2021/03/01 05:39:05;;;;;;;26.00;15.63;;;1.90;99.90;;;;;;5118800;27;20245;-73
2021/03/01 05:41:32;;;;;;;27.30;15.17;;;1.90;99.90;;;;;;5114889;27;20249;-73
2021/03/01 05:43:59;;;;;;;27.27;15.53;;;1.90;99.90;;;;;;5116048;27;20269;-73
2021/03/01 05:46:27;;;;;;;27.87;15.73;;;1.90;99.90;;;;;;5118526;27;20229;-73
2021/03/01 05:48:55;;;;;;;26.77;15.43;;;1.90;99.90;;;;;;5118669;27;20741;-74
2021/03/01 05:51:25;;;;;;;26.23;15.90;;;1.90;99.90;;;;;;5135272;27;20197;-73
2021/03/01 05:53:55;;;;;;;29.73;15.93;;;1.80;99.90;;;;;;5134768;27;20202;-73
2021/03/01 05:56:21;;;;;;;27.97;16.13;;;1.80;99.90;;;;;;5119212;27;20758;-73
2021/03/01 05:58:49;;;;;;;28.67;16.67;;;1.70;99.90;;;;;;5114808;27;20226;-74
2021/03/01 06:01:17;;;;;;;29.47;16.30;;;1.70;99.90;;;;;;5113028;28;20266;-73
2021/03/01 06:03:44;;;;;;;27.03;15.77;;;1.70;99.90;;;;;;5114435;28;20240;-73
2021/03/01 06:06:12;;;;;;;28.90;15.93;;;1.70;99.90;;;;;;5114640;28;20257;-73
2021/03/01 06:08:39;;;;;;;26.77;15.60;;;1.80;99.90;;;;;;5114323;28;20229;-73
2021/03/01 06:11:07;;;;;;;27.17;15.33;;;1.90;99.90;;;;;;5114289;28;20608;-73
2021/03/01 06:13:34;;;;;;;27.00;16.60;;;1.80;99.90;;;;;;5113743;28;20292;-74
2021/03/01 06:16:03;;;;;;;28.73;15.97;;;1.70;99.90;;;;;;5113952;28;20281;-73
2021/03/01 06:18:30;;;;;;;26.40;15.60;;;1.70;99.90;;;;;;5113671;28;20302;-73
2021/03/01 06:21:10;;;;;;;26.73;15.20;;;1.70;99.90;;;;;;5113842;28;20699;-73
2021/03/01 06:23:38;;;;;;;30.30;16.10;;;1.70;99.90;;;;;;5113978;28;20281;-73
2021/03/01 06:26:29;;;;;;;25.13;14.80;;;1.70;99.90;;;;;;5113723;28;20275;-73
2021/03/01 06:29:06;;;;;;;26.13;15.23;;;1.70;99.90;;;;;;5113685;28;20280;-74
2021/03/01 06:31:39;;;;;;;26.50;15.37;;;1.70;99.90;;;;;;5113722;28;20704;-73
2021/03/01 06:34:24;;;;;;;28.57;16.00;;;1.50;99.90;;;;;;5112996;28;20198;-73
2021/03/01 06:37:01;;;;;;;26.10;15.53;;;1.50;99.90;;;;;;5113081;28;20247;-73
2021/03/01 06:39:30;;;;;;;25.33;14.47;;;1.40;99.90;;;;;;5113671;28;20563;-73
2021/03/01 06:41:57;;;;;;;27.47;15.67;;;1.30;99.90;;;;;;5113469;28;20255;-74
2021/03/01 06:44:24;;;;;;;26.07;15.23;;;1.30;99.90;;;;;;5112790;28;20753;-73
2021/03/01 06:46:52;;;;;;;26.83;15.70;;;1.30;99.90;;;;;;5113421;28;20657;-73
2021/03/01 06:49:20;;;;;;;25.77;15.00;;;1.40;99.90;;;;;;5113209;28;20678;-73
2021/03/01 06:51:47;;;;;;;25.87;15.13;;;1.50;99.90;;;;;;5113021;28;20267;-73
2021/03/01 06:54:23;;;;;;;26.40;14.97;;;1.40;99.90;;;;;;5113232;28;20290;-73
2021/03/01 06:56:50;;;;;;;26.07;15.30;;;1.30;99.90;;;;;;5132906;27;20236;-73
2021/03/01 06:59:17;;;;;;;26.87;15.83;;;1.30;99.90;;;;;;5133986;27;20289;-73
2021/03/01 07:01:46;;;;;;;28.57;16.30;;;1.30;99.90;;;;;;5133274;27;20285;-73
2021/03/01 07:04:19;;;;;;;26.83;15.47;;;1.60;99.90;;;;;;5133520;27;20240;-73
2021/03/01 07:06:47;;;;;;;27.77;15.87;;;1.80;99.90;;;;;;5132012;27;20229;-73
2021/03/01 07:09:15;;;;;;;28.17;16.20;;;2.00;99.90;;;;;;5133876;27;20284;-73
2021/03/01 07:11:43;;;;;;;25.90;15.57;;;2.10;99.90;;;;;;5132600;27;20205;-74
2021/03/01 07:14:11;;;;;;;25.13;15.43;;;2.30;99.90;;;;;;5133900;27;20250;-74
2021/03/01 07:16:39;;;;;;;26.80;15.63;;;2.40;99.90;;;;;;5113592;27;20242;-74
2021/03/01 07:19:07;;;;;;;25.73;15.07;;;2.60;99.90;;;;;;5118706;27;20200;-74
2021/03/01 07:21:35;;;;;;;25.20;14.47;;;2.90;99.90;;;;;;5112851;28;20232;-74
2021/03/01 07:24:03;;;;;;;25.70;14.93;;;3.30;99.90;;;;;;5121318;27;20280;-74
2021/03/01 07:26:29;;;;;;;24.73;14.77;;;3.40;99.90;;;;;;5135204;27;20200;-74
2021/03/01 07:29:04;;;;;;;25.63;14.97;;;3.50;99.90;;;;;;5136942;27;20304;-74
2021/03/01 07:31:34;;;;;;;24.97;14.47;;;3.90;99.90;;;;;;5118676;27;20937;-72
2021/03/01 07:34:03;;;;;;;22.83;14.50;;;4.40;99.90;;;;;;5132984;27;20658;-72
2021/03/01 07:36:31;;;;;;;26.20;14.50;;;4.80;99.90;;;;;;5130724;27;20271;-74
2021/03/01 07:38:58;;;;;;;21.27;14.00;;;5.20;99.90;;;;;;5121747;27;20196;-74
2021/03/01 07:41:25;;;;;;;20.00;13.70;;;5.60;99.90;;;;;;5129389;27;20233;-74
2021/03/01 07:43:52;;;;;;;21.80;13.73;;;5.90;99.90;;;;;;5128312;27;20241;-74
2021/03/01 07:46:25;;;;;;;19.30;13.37;;;6.10;99.90;;;;;;5126806;27;20208;-73
2021/03/01 07:48:51;;;;;;;21.20;13.53;;;6.40;99.90;;;;;;5121379;27;20693;-73
2021/03/01 07:51:39;;;;;;;18.53;13.27;;;6.70;99.90;;;;;;5120519;27;20202;-74
2021/03/01 07:54:06;;;;;;;18.20;13.27;;;7.10;99.90;;;;;;5112773;28;20251;-74
2021/03/01 07:56:48;;;;;;;17.60;11.93;;;7.40;99.90;;;;;;5112405;27;20249;-72
2021/03/01 07:59:32;;;;;;;20.47;13.03;;;7.50;99.90;;;;;;5121429;27;20208;-74
2021/03/01 08:02:23;;;;;;;18.53;12.87;;;8.20;99.90;;;;;;5122746;28;20674;-74
2021/03/01 08:04:51;;;;;;;17.83;13.73;;;8.40;99.90;;;;;;5112535;28;20633;-73
2021/03/01 08:07:18;;;;;;;20.33;13.20;;;8.20;99.90;;;;;;5127585;27;20305;-74
2021/03/01 08:09:53;;;;;;;18.93;14.13;;;8.10;99.90;;;;;;5115358;27;20238;-74
2021/03/01 08:12:53;;;;;;;19.27;12.97;;;8.50;99.90;;;;;;5131509;27;20197;-74
2021/03/01 08:15:27;;;;;;;19.33;13.87;;;8.30;99.90;;;;;;5048443;28;20209;-74
2021/03/01 08:17:56;;;;;;;19.17;13.77;;;9.20;99.90;;;;;;5065374;28;20283;-74
2021/03/01 08:20:53;;;;;;;18.37;13.37;;;9.30;99.90;;;;;;5063714;28;20212;-74
2021/03/01 08:23:33;;;;;;;19.80;13.90;;;9.50;99.90;;;;;;5054968;28;20205;-74
2021/03/01 08:26:02;;;;;;;17.33;13.53;;;9.90;99.90;;;;;;5068978;28;20269;-74
2021/03/01 08:28:51;;;;;;;20.03;14.03;;;10.80;99.90;;;;;;5068673;28;20265;-74
2021/03/01 08:31:23;;;;;;;16.73;13.23;;;11.30;99.90;;;;;;5068932;28;20297;-75
2021/03/01 08:33:51;;;;;;;17.80;13.60;;;11.60;99.90;;;;;;5085220;28;20333;-75
2021/03/01 08:36:26;;;;;;;17.57;13.53;;;11.70;99.90;;;;;;5078018;28;20231;-74
2021/03/01 08:38:57;;;;;;;18.17;14.10;;;11.40;99.90;;;;;;5069244;28;20195;-74
2021/03/01 08:41:45;;;;;;;15.63;13.43;;;11.80;99.90;;;;;;5072860;28;20202;-74
2021/03/01 08:44:20;;;;;;;17.90;13.07;;;11.90;99.90;;;;;;5074857;28;20231;-74
2021/03/01 08:46:48;;;;;;;18.43;13.20;;;12.40;99.90;;;;;;5071466;28;20613;-73
2021/03/01 08:49:24;;;;;;;17.93;12.90;;;12.70;99.90;;;;;;5064067;28;20257;-73
2021/03/01 08:51:50;;;;;;;15.43;13.13;;;12.90;99.90;;;;;;5094476;27;20541;-73
2021/03/01 08:54:28;;;;;;;16.70;13.50;;;13.30;99.90;;;;;;5115559;28;20221;-73
2021/03/01 08:57:08;;;;;;;16.73;13.30;;;13.40;99.90;;;;;;5134009;27;20244;-75
2021/03/01 08:59:35;;;;;;;16.60;14.10;;;13.50;99.90;;;;;;5130286;27;20683;-75
2021/03/01 09:02:01;;;;;;;19.33;14.10;;;12.00;99.90;;;;;;5117783;27;20354;-74
2021/03/01 09:04:28;;;;;;;18.63;14.03;;;12.10;99.90;;;;;;5115501;28;20232;-75
2021/03/01 09:07:05;;;;;;;21.73;15.40;;;12.20;99.90;;;;;;5114449;28;20236;-74
2021/03/01 09:09:46;;;;;;;19.23;14.60;;;12.60;99.90;;;;;;5115779;28;20280;-75
2021/03/01 09:12:18;;;;;;;17.97;13.10;;;13.00;99.90;;;;;;5115379;28;20274;-74
2021/03/01 09:14:46;;;;;;;18.03;13.37;;;12.80;99.90;;;;;;5114301;28;20598;-74
2021/03/01 09:17:13;;;;;;;20.00;13.80;;;11.80;99.90;;;;;;5112908;28;20582;-74
2021/03/01 09:19:40;;;;;;;20.60;13.57;;;12.50;99.90;;;;;;5114669;28;20247;-74
2021/03/01 09:22:06;;;;;;;19.47;14.73;;;12.30;99.90;;;;;;5114067;28;20197;-74
2021/03/01 09:24:33;;;;;;;17.83;13.83;;;12.20;99.90;;;;;;5114857;28;20291;-74
2021/03/01 09:26:59;;;;;;;19.83;14.53;;;12.20;99.90;;;;;;5114443;27;20744;-74
2021/03/01 09:29:25;;;;;;;19.70;13.93;;;13.10;99.90;;;;;;5125347;27;20265;-74
2021/03/01 09:31:54;;;;;;;20.37;14.57;;;13.40;99.90;;;;;;5120434;27;20259;-74
2021/03/01 09:34:22;;;;;;;21.33;14.10;;;13.50;99.90;;;;;;5119775;27;20194;-75
2021/03/01 09:36:50;;;;;;;22.30;15.63;;;13.70;99.90;;;;;;5125552;27;20588;-74
2021/03/01 09:39:19;;;;;;;20.67;15.13;;;13.70;99.90;;;;;;5124305;27;20573;-74
2021/03/01 09:41:45;;;;;;;20.57;14.63;;;13.60;99.90;;;;;;5127298;27;20304;-74
2021/03/01 09:44:19;;;;;;;19.60;14.43;;;14.00;99.90;;;;;;5121350;27;20711;-74
2021/03/01 09:46:48;;;;;;;25.10;15.30;;;14.20;99.90;;;;;;5125810;27;20225;-74
2021/03/01 09:49:15;;;;;;;19.87;14.03;;;14.40;99.90;;;;;;5126466;27;20260;-74
2021/03/01 09:51:42;;;;;;;25.13;13.87;;;14.10;99.90;;;;;;5122118;27;20287;-75
2021/03/01 09:54:10;;;;;;;21.03;13.80;;;13.40;99.90;;;;;;5130925;27;20228;-74
2021/03/01 09:56:40;;;;;;;17.80;13.60;;;13.40;99.90;;;;;;5118011;27;20320;-74
2021/03/01 09:59:07;;;;;;;16.23;13.20;;;13.30;99.90;;;;;;5117366;27;20289;-75
2021/03/01 10:01:33;;;;;;;21.53;14.23;;;12.70;99.90;;;;;;5124826;27;20236;-74
2021/03/01 10:04:00;;;;;;;20.90;14.23;;;12.90;99.90;;;;;;5126622;27;20675;-75
2021/03/01 10:06:31;;;;;;;18.13;13.70;;;14.10;99.90;;;;;;5118716;27;20237;-75
2021/03/01 10:09:04;;;;;;;19.53;14.07;;;14.20;99.90;;;;;;5124564;27;20315;-75
2021/03/01 10:11:31;;;;;;;19.93;15.10;;;13.30;99.90;;;;;;5119121;27;20201;-74
2021/03/01 10:14:03;;;;;;;22.63;15.43;;;13.70;99.90;;;;;;5131224;27;20284;-74
2021/03/01 10:16:31;;;;;;;20.13;14.90;;;14.50;99.90;;;;;;5117970;27;20241;-74
2021/03/01 10:19:10;;;;;;;21.30;14.60;;;15.40;99.90;;;;;;5121372;27;20272;-74
2021/03/01 10:21:37;;;;;;;18.87;13.10;;;15.30;99.90;;;;;;5117015;27;20225;-74
2021/03/01 10:24:06;;;;;;;18.27;13.97;;;15.20;99.90;;;;;;5128597;27;20227;-75
2021/03/01 10:26:48;;;;;;;16.00;12.97;;;15.50;99.90;;;;;;5128853;27;20196;-74
2021/03/01 10:29:14;;;;;;;15.33;13.70;;;15.50;99.90;;;;;;5123078;27;20320;-74
2021/03/01 10:31:44;;;;;;;17.57;13.40;;;15.50;99.90;;;;;;5131981;27;20189;-76
2021/03/01 10:34:12;;;;;;;19.30;13.47;;;15.70;99.90;;;;;;5122689;27;20718;-75
2021/03/01 10:36:52;;;;;;;19.00;13.83;;;15.00;99.90;;;;;;5119266;27;20581;-75
2021/03/01 10:39:21;;;;;;;19.97;13.63;;;14.90;99.90;;;;;;5124655;27;20202;-75
2021/03/01 10:41:53;;;;;;;19.33;13.70;;;15.70;99.90;;;;;;5120036;27;20248;-75
2021/03/01 10:44:27;;;;;;;22.63;14.17;;;15.30;99.90;;;;;;5119905;27;20229;-75
2021/03/01 10:46:54;;;;;;;18.50;13.63;;;14.60;99.90;;;;;;5123657;27;20246;-75
2021/03/01 10:49:25;;;;;;;17.77;13.20;;;14.00;99.90;;;;;;5120347;27;20256;-75
2021/03/01 10:51:53;;;;;;;24.17;14.47;;;14.10;99.90;;;;;;5118419;27;20193;-75
2021/03/01 10:54:20;;;;;;;22.03;14.17;;;14.30;99.90;;;;;;5116889;27;20288;-75
2021/03/01 10:56:47;;;;;;;27.97;14.83;;;14.30;99.90;;;;;;5124825;27;20239;-75
2021/03/01 10:59:15;;;;;;;22.43;14.77;;;15.10;99.90;;;;;;5120312;27;20225;-75
2021/03/01 11:01:42;;;;;;;19.73;14.33;;;15.50;99.90;;;;;;5111033;28;20202;-75
2021/03/01 11:04:10;;;;;;;24.33;15.33;;;16.00;99.90;;;;;;5111310;28;20284;-75
2021/03/01 11:06:38;;;;;;;24.33;15.77;;;16.40;99.90;;;;;;5120695;27;20194;-75
2021/03/01 11:09:07;;;;;;;25.27;17.40;;;16.70;99.90;;;;;;5118071;27;20654;-75
2021/03/01 11:11:34;;;;;;;24.75;15.90;;;17.10;99.90;;;;;;5127952;27;20626;-75
2021/03/01 11:14:00;;;;;;;24.92;15.30;;;18.00;99.90;;;;;;5119126;27;20300;-75
2021/03/01 11:16:28;;;;;;;24.27;15.85;;;17.30;99.90;;;;;;5116585;27;20236;-75
2021/03/01 11:18:54;;;;;;;22.45;15.25;;;16.40;99.90;;;;;;5120782;27;20232;-75
2021/03/01 11:21:21;;;;;;;22.67;15.20;;;17.40;99.90;;;;;;5115405;27;20338;-74
2021/03/01 11:23:47;;;;;;;32.50;15.50;;;17.90;99.90;;;;;;5118041;27;20277;-74
2021/03/01 11:26:14;;;;;;;27.48;15.27;;;17.10;99.90;;;;;;5118692;27;20228;-75
2021/03/01 11:28:41;;;;;;;23.23;14.90;;;17.00;99.90;;;;;;5127767;27;20221;-75
2021/03/01 11:31:08;;;;;;;19.52;13.93;;;17.40;99.90;;;;;;5120549;27;20292;-75
2021/03/01 11:33:36;;;;;;;20.05;14.30;;;17.50;99.90;;;;;;5126767;27;20654;-76
2021/03/01 11:36:02;;;;;;;19.92;13.07;;;17.80;99.90;;;;;;5122812;27;20237;-75
2021/03/01 11:38:29;;;;;;;18.77;14.13;;;17.20;99.90;;;;;;5122945;27;20284;-76
2021/03/01 11:40:57;;;;;;;18.45;13.80;;;17.60;99.90;;;;;;5121642;27;20224;-76
2021/03/01 11:43:24;;;;;;;20.38;13.88;;;17.20;99.90;;;;;;5122401;27;20228;-74
2021/03/01 11:45:51;;;;;;;18.80;13.57;;;17.40;99.90;;;;;;5123319;27;20284;-76
2021/03/01 11:48:18;;;;;;;20.08;13.95;;;17.70;99.90;;;;;;5124308;27;20304;-75
2021/03/01 11:50:48;;;;;;;19.13;13.90;;;17.60;99.90;;;;;;5127959;27;20247;-74
2021/03/01 11:53:15;;;;;;;19.77;13.60;;;17.50;99.90;;;;;;5119712;27;20229;-74
2021/03/01 11:55:43;;;;;;;18.67;12.73;;;17.50;99.90;;;;;;5127071;27;20312;-75
2021/03/01 11:58:10;;;;;;;18.55;13.32;;;17.60;99.90;;;;;;5132221;27;20625;-74
2021/03/01 12:00:39;;;;;;;18.50;13.00;;;18.20;99.90;;;;;;5126322;27;20304;-74
2021/03/01 12:03:06;;;;;;;18.85;12.15;;;17.70;99.90;;;;;;5128685;28;20197;-74
2021/03/01 12:05:33;;;;;;;15.93;12.77;;;17.70;99.90;;;;;;5111686;28;20232;-74
2021/03/01 12:08:00;;;;;;;17.48;11.55;;;18.40;99.90;;;;;;5118109;28;20659;-75
2021/03/01 12:10:27;;;;;;;19.08;11.77;;;19.00;99.90;;;;;;5119802;27;20233;-75
2021/03/01 12:12:53;;;;;;;18.20;11.70;;;18.70;99.90;;;;;;5114480;28;20284;-74
2021/03/01 12:15:20;;;;;;;20.27;12.15;;;18.80;99.90;;;;;;5128415;27;20960;-75
2021/03/01 12:17:46;;;;;;;15.48;11.52;;;18.30;99.90;;;;;;5124050;27;20239;-74
2021/03/01 12:20:13;;;;;;;18.85;12.27;;;18.30;99.90;;;;;;5128800;27;20283;-75
2021/03/01 12:22:40;;;;;;;19.02;11.93;;;18.30;99.90;;;;;;5129533;27;20193;-74
2021/03/01 12:25:08;;;;;;;16.17;10.55;;;17.60;99.90;;;;;;5124124;27;20666;-75
2021/03/01 12:27:35;;;;;;;15.15;10.40;;;18.00;99.90;;;;;;5120710;27;20308;-75
2021/03/01 12:30:01;;;;;;;14.35;10.20;;;18.10;99.90;;;;;;5122375;27;20288;-75
2021/03/01 12:32:31;;;;;;;14.13;10.68;;;18.40;99.90;;;;;;5123104;27;20729;-73
2021/03/01 12:34:59;;;;;;;15.50;10.82;;;19.00;99.90;;;;;;5113864;27;20315;-75
2021/03/01 12:37:25;;;;;;;17.50;10.90;;;18.20;99.90;;;;;;5125678;27;20197;-75
2021/03/01 12:39:52;;;;;;;18.80;10.48;;;18.60;99.90;;;;;;5121276;27;20232;-75
2021/03/01 12:42:20;;;;;;;16.05;9.98;;;18.00;99.90;;;;;;5132854;27;20193;-75